Time;durP1;ratioP1;P1;durP2;ratioP2;P2;SDS_P1;SDS_P2;PMS_P1;PMS_P2;Temp;Humidity;BMP_temperature;BMP_pressure;BME280_temperature;BME280_humidity;BME280_pressure;Samples;Min_cycle;Max_cycle;Signal;HPM_P1;HPM_P2
2021/03/30 00:02:07;;;;;;;5.13;2.20;;;;;;;-141.50;100.00;63355.56;5026272;28;20056;-78
2021/03/30 00:04:33;;;;;;;6.13;1.80;;;;;;;-141.50;100.00;63355.56;5012420;28;20056;-77
2021/03/30 00:06:59;;;;;;;7.72;2.20;;;;;;;-141.50;100.00;63355.56;5022474;28;20050;-79
2021/03/30 00:09:25;;;;;;;8.63;2.55;;;;;;;-141.50;100.00;63355.56;5022385;28;20046;-78
2021/03/30 00:11:51;;;;;;;10.27;2.53;;;;;;;-141.50;100.00;63355.56;5019024;28;20069;-78
2021/03/30 00:14:20;;;;;;;8.52;2.17;;;;;;;-141.50;100.00;63355.56;5003598;28;20506;-77
2021/03/30 00:16:48;;;;;;;5.38;1.92;;;;;;;-141.50;100.00;63355.56;4994567;28;20058;-78
2021/03/30 00:19:15;;;;;;;10.50;2.95;;;;;;;-141.50;100.00;63355.56;5002187;28;20042;-79
2021/03/30 00:21:41;;;;;;;7.57;2.38;;;;;;;-141.50;100.00;63355.56;4975496;28;20053;-79
2021/03/30 00:24:08;;;;;;;6.72;2.50;;;;;;;-141.50;100.00;63355.56;4991282;28;20050;-78
2021/03/30 00:26:35;;;;;;;8.30;2.08;;;;;;;-141.50;100.00;63355.56;4991168;28;20046;-78
2021/03/30 00:29:03;;;;;;;10.95;2.45;;;;;;;-141.50;100.00;63355.56;4991806;28;20046;-77
2021/03/30 00:31:30;;;;;;;13.25;2.65;;;;;;;-141.50;100.00;63355.56;5001057;28;20041;-76
2021/03/30 00:33:56;;;;;;;16.65;2.40;;;;;;;-141.50;100.00;63355.56;5011134;28;20042;-77
2021/03/30 00:36:22;;;;;;;9.55;2.40;;;;;;;-141.50;100.00;63355.56;5012287;28;20054;-78
2021/03/30 00:38:48;;;;;;;7.38;2.35;;;;;;;-141.50;100.00;63355.56;5010827;28;20421;-78
2021/03/30 00:41:14;;;;;;;8.40;2.35;;;;;;;-141.50;100.00;63355.56;5013141;28;20050;-79
2021/03/30 00:43:40;;;;;;;7.05;2.38;;;;;;;-141.50;100.00;63355.56;5016025;28;20030;-79
2021/03/30 00:46:14;;;;;;;6.53;2.50;;;;;;;-141.50;100.00;63355.56;4999736;28;20053;-78
2021/03/30 00:48:41;;;;;;;11.07;2.58;;;;;;;-141.50;100.00;63355.56;4997712;28;20572;-78
2021/03/30 00:51:08;;;;;;;6.50;2.25;;;;;;;-141.50;100.00;63355.56;5014651;28;20046;-79
2021/03/30 00:53:34;;;;;;;8.90;2.85;;;;;;;-141.50;100.00;63355.56;4998500;28;20041;-79
2021/03/30 00:56:03;;;;;;;6.40;2.55;;;;;;;-141.50;100.00;63355.56;5014968;28;20050;-77
2021/03/30 00:58:29;;;;;;;8.45;2.35;;;;;;;-141.50;100.00;63355.56;5015566;28;20050;-79
2021/03/30 01:00:55;;;;;;;8.52;2.90;;;;;;;-141.50;100.00;63355.56;5027864;28;20064;-79
2021/03/30 01:03:22;;;;;;;11.82;2.92;;;;;;;-141.50;100.00;63355.56;4997895;28;20069;-80
2021/03/30 01:05:48;;;;;;;8.45;2.53;;;;;;;-141.50;100.00;63355.56;5014890;28;20216;-79
2021/03/30 01:08:17;;;;;;;8.93;2.65;;;;;;;-141.50;100.00;63355.56;5014987;28;20196;-79
2021/03/30 01:10:56;;;;;;;6.07;2.65;;;;;;;-141.50;100.00;63355.56;5017049;28;20057;-80
2021/03/30 01:14:03;;;;;;;8.23;2.50;;;;;;;-141.50;100.00;63355.56;5010504;28;20042;-79
2021/03/30 01:16:40;;;;;;;8.40;2.80;;;;;;;-141.50;100.00;63355.56;4939263;29;20447;-79
2021/03/30 01:19:13;;;;;;;8.57;2.97;;;;;;;-141.50;100.00;63355.56;5007995;28;20057;-78
2021/03/30 01:22:03;;;;;;;11.57;3.10;;;;;;;-141.50;100.00;63355.56;5014292;28;20050;-78
2021/03/30 01:24:37;;;;;;;11.32;3.28;;;;;;;-141.50;100.00;63355.56;5015221;28;20038;-78
2021/03/30 01:27:06;;;;;;;8.07;2.47;;;;;;;-141.50;100.00;63355.56;5015374;28;20489;-78
2021/03/30 01:30:00;;;;;;;8.52;3.72;;;;;;;-141.50;100.00;63355.56;5015138;28;20479;-77
2021/03/30 01:32:35;;;;;;;14.57;2.60;;;;;;;-141.50;100.00;63355.56;5014762;28;20050;-77
2021/03/30 01:35:05;;;;;;;10.27;3.38;;;;;;;-141.50;100.00;63355.56;5013450;28;20120;-77
2021/03/30 01:37:38;;;;;;;11.13;3.58;;;;;;;-141.50;100.00;63355.56;5014246;28;20042;-78
2021/03/30 01:40:07;;;;;;;8.27;2.80;;;;;;;-141.50;100.00;63355.56;5013000;28;20124;-76
2021/03/30 01:42:34;;;;;;;7.32;2.72;;;;;;;-141.50;100.00;63355.56;5012859;28;20058;-78
2021/03/30 01:45:01;;;;;;;7.20;2.50;;;;;;;-141.50;100.00;63355.56;5014908;28;20045;-78
2021/03/30 01:47:31;;;;;;;8.48;3.15;;;;;;;-141.50;100.00;63355.56;4997237;28;20057;-78
2021/03/30 01:49:58;;;;;;;7.00;3.03;;;;;;;-141.50;100.00;63355.56;5014789;28;20048;-76
2021/03/30 01:52:24;;;;;;;9.10;2.97;;;;;;;-141.50;100.00;63355.56;5008675;28;20527;-77
2021/03/30 01:54:55;;;;;;;8.18;3.00;;;;;;;-141.50;100.00;63355.56;5008364;28;20054;-77
2021/03/30 01:57:25;;;;;;;9.68;3.20;;;;;;;-141.50;100.00;63355.56;5026968;28;20041;-78
2021/03/30 02:00:00;;;;;;;10.98;3.28;;;;;;;-141.50;100.00;63355.56;4998739;28;20076;-77
2021/03/30 02:02:27;;;;;;;5.90;2.65;;;;;;;-141.50;100.00;63355.56;5013234;28;20477;-79
2021/03/30 02:04:54;;;;;;;7.80;3.28;;;;;;;-141.50;100.00;63355.56;5007973;28;20046;-77
2021/03/30 02:07:22;;;;;;;8.30;2.95;;;;;;;-141.50;100.00;63355.56;5012568;28;20034;-77
2021/03/30 02:09:53;;;;;;;8.13;3.00;;;;;;;-141.50;100.00;63355.56;5011971;28;20057;-77
2021/03/30 02:12:21;;;;;;;7.75;3.15;;;;;;;-141.50;100.00;63355.56;5013963;28;20042;-77
2021/03/30 02:14:47;;;;;;;8.98;3.08;;;;;;;-141.50;100.00;63355.56;4995118;28;20208;-77
2021/03/30 02:17:56;;;;;;;10.32;3.53;;;;;;;-141.50;100.00;63355.56;5010890;28;20061;-77
2021/03/30 02:20:26;;;;;;;12.48;3.75;;;;;;;-141.50;100.00;63355.56;5035897;22;20103;-77
2021/03/30 02:22:57;;;;;;;9.05;3.10;;;;;;;-141.50;100.00;63355.56;5028014;28;20236;-78
2021/03/30 02:25:24;;;;;;;8.77;2.80;;;;;;;-141.50;100.00;63355.56;5030128;28;20045;-77
2021/03/30 02:27:55;;;;;;;7.70;2.97;;;;;;;-141.50;100.00;63355.56;5029876;28;20055;-77
2021/03/30 02:30:24;;;;;;;11.10;3.28;;;;;;;-141.50;100.00;63355.56;5029405;28;20124;-77
2021/03/30 02:32:51;;;;;;;11.40;3.65;;;;;;;-141.50;100.00;63355.56;5030305;28;20049;-77
2021/03/30 02:35:20;;;;;;;7.65;3.20;;;;;;;-141.50;100.00;63355.56;5021185;28;20057;-77
2021/03/30 02:37:46;;;;;;;7.25;3.28;;;;;;;-141.50;100.00;63355.56;5030750;28;20480;-77
2021/03/30 02:40:16;;;;;;;12.13;3.33;;;;;;;-141.50;100.00;63355.56;5030190;28;20397;-78
2021/03/30 02:42:46;;;;;;;8.18;3.50;;;;;;;-141.50;100.00;63355.56;5030474;28;20041;-78
2021/03/30 02:45:15;;;;;;;9.02;2.80;;;;;;;-141.50;100.00;63355.56;5029797;28;20037;-77
2021/03/30 02:48:05;;;;;;;10.07;3.63;;;;;;;-141.50;100.00;63355.56;5029647;28;20520;-77
2021/03/30 02:50:32;;;;;;;7.32;2.95;;;;;;;-141.50;100.00;63355.56;5030599;28;20045;-78
2021/03/30 02:53:00;;;;;;;9.05;3.22;;;;;;;-141.50;100.00;63355.56;5029884;28;20052;-78
2021/03/30 02:55:27;;;;;;;6.53;3.10;;;;;;;-141.50;100.00;63355.56;5030047;28;20042;-78
2021/03/30 02:57:54;;;;;;;8.55;3.65;;;;;;;-141.50;100.00;63355.56;5028597;28;20046;-77
2021/03/30 03:00:20;;;;;;;8.05;3.30;;;;;;;-141.50;100.00;63355.56;5028898;28;20076;-76
2021/03/30 03:02:47;;;;;;;10.02;3.60;;;;;;;-141.50;100.00;63355.56;5028444;28;20060;-78
2021/03/30 03:05:16;;;;;;;13.60;3.72;;;;;;;-141.50;100.00;63355.56;5029814;28;20057;-76
2021/03/30 03:07:43;;;;;;;7.57;3.38;;;;;;;-141.50;100.00;63355.56;5029352;28;20056;-76
2021/03/30 03:10:10;;;;;;;8.25;3.47;;;;;;;-141.50;100.00;63355.56;5027795;28;20552;-76
2021/03/30 03:12:39;;;;;;;12.05;4.00;;;;;;;-141.50;100.00;63355.56;5030641;28;20386;-78
2021/03/30 03:15:08;;;;;;;10.07;3.30;;;;;;;-141.50;100.00;63355.56;5029353;28;20064;-76
2021/03/30 03:17:35;;;;;;;12.23;3.70;;;;;;;-141.50;100.00;63355.56;5029186;28;20045;-78
2021/03/30 03:20:03;;;;;;;7.55;3.60;;;;;;;-141.50;100.00;63355.56;5028100;28;20052;-76
2021/03/30 03:22:29;;;;;;;10.80;3.60;;;;;;;-141.50;100.00;63355.56;5028115;28;20333;-78
2021/03/30 03:24:56;;;;;;;11.02;3.70;;;;;;;-141.50;100.00;63355.56;5029582;28;20056;-78
2021/03/30 03:27:22;;;;;;;8.57;3.80;;;;;;;-141.50;100.00;63355.56;5028444;28;20049;-76
2021/03/30 03:29:48;;;;;;;11.10;3.80;;;;;;;-141.50;100.00;63355.56;5029545;28;20041;-77
2021/03/30 03:32:14;;;;;;;7.57;3.70;;;;;;;-141.50;100.00;63355.56;5029220;28;20049;-76
2021/03/30 03:34:41;;;;;;;8.23;3.40;;;;;;;-141.50;100.00;63355.56;5028350;28;20045;-76
2021/03/30 03:37:08;;;;;;;9.02;3.72;;;;;;;-141.50;100.00;63355.56;5028873;28;20059;-77
2021/03/30 03:39:34;;;;;;;9.10;3.90;;;;;;;-141.50;100.00;63355.56;5029082;28;20037;-76
2021/03/30 03:42:00;;;;;;;10.38;3.50;;;;;;;-141.50;100.00;63355.56;5029543;28;20088;-77
2021/03/30 03:44:28;;;;;;;7.45;3.55;;;;;;;-141.50;100.00;63355.56;5029317;28;20048;-77
2021/03/30 03:46:54;;;;;;;9.27;3.80;;;;;;;-141.50;100.00;63355.56;5029657;28;20042;-77
2021/03/30 03:49:23;;;;;;;12.45;3.60;;;;;;;-141.50;100.00;63355.56;5011802;28;20052;-77
2021/03/30 03:52:07;;;;;;;8.20;3.63;;;;;;;-141.50;100.00;63355.56;5029647;28;20495;-76
2021/03/30 03:54:36;;;;;;;8.57;3.30;;;;;;;-141.50;100.00;63355.56;5029253;28;20485;-77
2021/03/30 03:57:12;;;;;;;8.27;3.40;;;;;;;-141.50;100.00;63355.56;5029108;28;20264;-76
2021/03/30 03:59:40;;;;;;;7.00;3.55;;;;;;;-141.50;100.00;63355.56;5029082;28;20055;-78
2021/03/30 04:02:24;;;;;;;14.57;3.95;;;;;;;-141.50;100.00;63355.56;5029100;28;20632;-78
2021/03/30 04:05:01;;;;;;;7.07;3.38;;;;;;;-141.50;100.00;63355.56;5029100;28;20049;-77
2021/03/30 04:08:04;;;;;;;13.38;3.97;;;;;;;-141.50;100.00;63355.56;5027337;28;20543;-78
2021/03/30 04:10:32;;;;;;;11.25;4.20;;;;;;;-141.50;100.00;63355.56;5010037;28;20390;-77
2021/03/30 04:13:04;;;;;;;9.52;4.03;;;;;;;-141.50;100.00;63355.56;5027639;28;20055;-76
2021/03/30 04:15:31;;;;;;;10.40;4.28;;;;;;;-141.50;100.00;63355.56;5028236;28;20408;-76
2021/03/30 04:17:59;;;;;;;8.05;3.75;;;;;;;-141.50;100.00;63355.56;5027345;28;20034;-77
2021/03/30 04:20:26;;;;;;;14.90;4.80;;;;;;;-141.50;100.00;63355.56;5029009;28;20127;-77
2021/03/30 04:22:55;;;;;;;12.43;4.15;;;;;;;-141.50;100.00;63355.56;5027295;28;20049;-77
2021/03/30 04:25:22;;;;;;;9.13;4.18;;;;;;;-141.50;100.00;63355.56;5028530;28;20049;-78
2021/03/30 04:27:48;;;;;;;12.55;4.00;;;;;;;-141.50;100.00;63355.56;5028932;28;20106;-78
2021/03/30 04:30:14;;;;;;;9.60;3.78;;;;;;;-141.50;100.00;63355.56;5027327;28;20077;-77
2021/03/30 04:32:41;;;;;;;8.13;3.53;;;;;;;-141.50;100.00;63355.56;5028244;28;20079;-78
2021/03/30 04:35:08;;;;;;;9.35;3.75;;;;;;;-141.50;100.00;63355.56;5027337;28;20049;-77
2021/03/30 04:37:34;;;;;;;15.05;3.97;;;;;;;-141.50;100.00;63355.56;5027845;28;20041;-77
2021/03/30 04:40:07;;;;;;;8.73;3.80;;;;;;;-141.50;100.00;63355.56;5023739;28;20404;-77
2021/03/30 04:42:34;;;;;;;14.00;3.85;;;;;;;-141.50;100.00;63355.56;5017555;28;20121;-77
2021/03/30 04:45:00;;;;;;;9.73;4.15;;;;;;;-141.50;100.00;63355.56;5018627;28;20057;-77
2021/03/30 04:47:28;;;;;;;12.73;4.10;;;;;;;-141.50;100.00;63355.56;5026539;28;20462;-77
2021/03/30 04:49:54;;;;;;;9.05;3.75;;;;;;;-141.50;100.00;63355.56;5039436;28;20416;-77
2021/03/30 04:52:20;;;;;;;11.68;3.75;;;;;;;-141.50;100.00;63355.56;5039270;28;20041;-76
2021/03/30 04:54:46;;;;;;;12.50;3.97;;;;;;;-141.50;100.00;63355.56;5041840;28;20045;-76
2021/03/30 04:57:12;;;;;;;11.57;4.55;;;;;;;-141.50;100.00;63355.56;5040155;28;20676;-77
2021/03/30 04:59:38;;;;;;;18.60;4.28;;;;;;;-141.50;100.00;63355.56;5027285;28;20050;-77
2021/03/30 05:02:05;;;;;;;15.82;3.95;;;;;;;-141.50;100.00;63355.56;5009677;28;20042;-77
2021/03/30 05:04:32;;;;;;;10.70;3.95;;;;;;;-141.50;100.00;63355.56;5010417;28;20073;-76
2021/03/30 05:06:58;;;;;;;13.68;4.13;;;;;;;-141.50;100.00;63355.56;5009605;28;20132;-76
2021/03/30 05:09:24;;;;;;;14.05;4.57;;;;;;;-141.50;100.00;63355.56;5008660;28;20065;-77
2021/03/30 05:11:50;;;;;;;16.10;4.05;;;;;;;-141.50;100.00;63355.56;5016277;28;20497;-78
2021/03/30 05:14:16;;;;;;;12.00;4.28;;;;;;;-141.50;100.00;63355.56;5005099;28;20088;-77
2021/03/30 05:16:44;;;;;;;14.40;4.40;;;;;;;-141.50;100.00;63355.56;5018013;28;20141;-76
2021/03/30 05:19:10;;;;;;;16.88;4.78;;;;;;;-141.50;100.00;63355.56;5024450;28;20045;-77
2021/03/30 05:21:38;;;;;;;16.92;4.53;;;;;;;-141.50;100.00;63355.56;5016976;28;20332;-77
2021/03/30 05:24:07;;;;;;;12.30;4.43;;;;;;;-141.50;100.00;63355.56;5013460;28;20042;-77
2021/03/30 05:26:33;;;;;;;19.52;4.22;;;;;;;-141.50;100.00;63355.56;5033236;28;20125;-76
2021/03/30 05:28:59;;;;;;;9.30;3.88;;;;;;;-141.50;100.00;63355.56;5038282;28;20684;-76
2021/03/30 05:31:25;;;;;;;7.93;3.75;;;;;;;-141.50;100.00;63355.56;5048073;28;20492;-76
2021/03/30 05:33:51;;;;;;;16.77;3.53;;;;;;;-141.50;100.00;63355.56;5031770;28;20134;-76
2021/03/30 05:36:17;;;;;;;14.85;4.15;;;;;;;-141.50;100.00;63355.56;5031279;28;20048;-76
2021/03/30 05:38:43;;;;;;;17.17;3.85;;;;;;;-141.50;100.00;63355.56;5032351;28;20038;-76
2021/03/30 05:41:09;;;;;;;15.05;3.70;;;;;;;-141.50;100.00;63355.56;5032290;28;20045;-76
2021/03/30 05:43:36;;;;;;;17.08;4.20;;;;;;;-141.50;100.00;63355.56;5033192;28;20049;-76
2021/03/30 05:46:03;;;;;;;10.32;3.95;;;;;;;-141.50;100.00;63355.56;5032491;28;20076;-76
2021/03/30 05:48:31;;;;;;;12.40;4.53;;;;;;;-141.50;100.00;63355.56;5041048;28;20049;-77
2021/03/30 05:50:58;;;;;;;15.13;4.10;;;;;;;-141.50;100.00;63355.56;5050999;28;20045;-78
2021/03/30 05:53:27;;;;;;;13.55;4.65;;;;;;;-141.50;100.00;63355.56;5039733;28;20045;-77
2021/03/30 05:56:05;;;;;;;10.73;3.90;;;;;;;-141.50;100.00;63355.56;5032197;28;20416;-77
2021/03/30 05:58:33;;;;;;;7.07;3.78;;;;;;;-141.50;100.00;63355.56;5031562;28;20087;-76
2021/03/30 06:01:05;;;;;;;11.38;4.22;;;;;;;-141.50;100.00;63355.56;5022477;28;20046;-77
2021/03/30 06:03:33;;;;;;;8.90;4.43;;;;;;;-141.50;100.00;63355.56;5047642;28;20091;-76
2021/03/30 06:06:01;;;;;;;12.02;4.40;;;;;;;-141.50;100.00;63355.56;5051918;28;20053;-78
2021/03/30 06:08:30;;;;;;;13.85;4.18;;;;;;;-141.50;100.00;63355.56;5051029;28;20049;-77
2021/03/30 06:10:59;;;;;;;10.80;3.72;;;;;;;-141.50;100.00;63355.56;5052140;28;20068;-77
2021/03/30 06:13:55;;;;;;;8.18;4.05;;;;;;;-141.50;100.00;63355.56;5051089;28;20041;-77
2021/03/30 06:16:38;;;;;;;8.32;4.32;;;;;;;-141.50;100.00;63355.56;5035528;28;20064;-77
2021/03/30 06:19:15;;;;;;;11.75;4.78;;;;;;;-141.50;100.00;63355.56;5050188;28;20041;-78
2021/03/30 06:21:58;;;;;;;8.27;4.13;;;;;;;-141.50;100.00;63355.56;5050087;28;20463;-77
2021/03/30 06:24:27;;;;;;;16.10;4.55;;;;;;;-141.50;100.00;63355.56;5054258;28;20056;-77
2021/03/30 06:26:56;;;;;;;13.23;5.25;;;;;;;-141.50;100.00;63355.56;5056842;28;20144;-77
2021/03/30 06:29:28;;;;;;;16.17;6.70;;;;;;;-141.50;100.00;63355.56;5058038;28;20067;-76
2021/03/30 06:31:55;;;;;;;15.57;5.15;;;;;;;-141.50;100.00;63355.56;5047186;28;20056;-77
2021/03/30 06:34:25;;;;;;;18.02;5.28;;;;;;;-141.50;100.00;63355.56;5028096;28;20114;-76
2021/03/30 06:36:51;;;;;;;11.63;5.05;;;;;;;-141.50;100.00;63355.56;5017977;28;20046;-77
2021/03/30 06:39:18;;;;;;;17.00;5.78;;;;;;;-141.50;100.00;63355.56;5010636;28;20042;-77
2021/03/30 06:41:56;;;;;;;12.80;5.95;;;;;;;-141.50;100.00;63355.56;5026362;28;20421;-76
2021/03/30 06:44:29;;;;;;;10.80;5.43;;;;;;;-141.50;100.00;63355.56;5010072;28;20037;-76
2021/03/30 06:47:07;;;;;;;13.35;5.47;;;;;;;-141.50;100.00;63355.56;5026659;28;20041;-76
2021/03/30 06:49:36;;;;;;;17.85;4.80;;;;;;;-141.50;100.00;63355.56;5032675;28;20056;-76
2021/03/30 06:52:16;;;;;;;12.88;4.95;;;;;;;-141.50;100.00;63355.56;5031211;28;20056;-76
2021/03/30 06:54:59;;;;;;;17.15;5.13;;;;;;;-141.50;100.00;63355.56;5032726;28;20041;-76
2021/03/30 06:57:42;;;;;;;14.23;5.40;;;;;;;-141.50;100.00;63355.56;5051764;28;20052;-76
2021/03/30 07:00:12;;;;;;;14.07;5.10;;;;;;;-141.50;100.00;63355.56;5050507;28;20037;-74
2021/03/30 07:02:52;;;;;;;15.25;5.30;;;;;;;-141.50;100.00;63355.56;5031834;28;20041;-77
2021/03/30 07:05:21;;;;;;;16.27;5.70;;;;;;;-141.50;100.00;63355.56;5001409;28;20056;-76
2021/03/30 07:08:11;;;;;;;17.27;5.50;;;;;;;-141.50;100.00;63355.56;5020853;28;20124;-76
2021/03/30 07:10:52;;;;;;;15.60;5.20;;;;;;;-141.50;100.00;63355.56;5021775;28;20629;-77
2021/03/30 07:13:21;;;;;;;22.95;6.05;;;;;;;-141.50;100.00;63355.56;5022044;28;20510;-76
2021/03/30 07:15:57;;;;;;;21.98;5.72;;;;;;;-141.50;100.00;63355.56;5018282;28;20049;-76
2021/03/30 07:18:30;;;;;;;20.52;6.45;;;;;;;-141.50;100.00;63355.56;5016181;28;20056;-77
2021/03/30 07:21:02;;;;;;;29.23;6.60;;;;;;;-141.50;100.00;63355.56;5037576;28;20068;-75
2021/03/30 07:23:31;;;;;;;19.58;6.45;;;;;;;-141.50;100.00;63355.56;5020626;28;20041;-76
2021/03/30 07:26:11;;;;;;;24.23;6.05;;;;;;;-141.50;100.00;63355.56;5009754;28;20188;-76
2021/03/30 07:28:47;;;;;;;19.63;6.38;;;;;;;-141.50;100.00;63355.56;5020182;28;20041;-76
2021/03/30 07:31:25;;;;;;;;;;;;;;;-141.50;100.00;63355.56;5020013;28;20073;-77
2021/03/30 07:34:01;;;;;;;16.92;5.60;;;;;;;-141.50;100.00;63355.56;5018585;28;19921;-76
2021/03/30 07:36:32;;;;;;;20.65;5.78;;;;;;;-141.50;100.00;63355.56;5025668;28;20103;-76
2021/03/30 07:39:02;;;;;;;14.38;5.72;;;;;;;-141.50;100.00;63355.56;5029792;28;20042;-76
2021/03/30 07:41:28;;;;;;;15.38;4.88;;;;;;;-141.50;100.00;63355.56;5022761;28;20711;-77
2021/03/30 07:44:01;;;;;;;10.55;3.42;;;;;;;-141.50;100.00;63355.56;5020734;28;20533;-76
2021/03/30 07:46:29;;;;;;;10.65;3.78;;;;;;;-141.50;100.00;63355.56;5020628;28;20041;-76
2021/03/30 07:48:56;;;;;;;10.52;4.35;;;;;;;-141.50;100.00;63355.56;5019542;28;20049;-76
2021/03/30 07:51:41;;;;;;;11.88;3.67;;;;;;;-141.50;100.00;63355.56;5017847;28;20473;-76
2021/03/30 07:54:13;;;;;;;10.45;4.32;;;;;;;-141.50;100.00;63355.56;5019826;28;20650;-75
2021/03/30 07:56:39;;;;;;;12.90;4.38;;;;;;;-141.50;100.00;63355.56;5019076;28;20037;-76
2021/03/30 07:59:06;;;;;;;10.07;4.28;;;;;;;-141.50;100.00;63355.56;5018830;28;20037;-76
2021/03/30 08:01:35;;;;;;;14.35;3.85;;;;;;;-141.50;100.00;63355.56;5018913;28;20441;-77
2021/03/30 08:04:02;;;;;;;10.10;4.40;;;;;;;-141.50;100.00;63355.56;5016725;28;20048;-77
2021/03/30 08:06:48;;;;;;;8.32;3.63;;;;;;;-141.50;100.00;63355.56;5016249;28;20054;-76
2021/03/30 08:09:17;;;;;;;12.07;4.03;;;;;;;-141.50;100.00;63355.56;5017365;28;20025;-75
2021/03/30 08:11:44;;;;;;;13.15;3.63;;;;;;;-141.50;100.00;63355.56;5019727;28;20076;-76
2021/03/30 08:14:22;;;;;;;11.75;4.30;;;;;;;-141.50;100.00;63355.56;5029935;28;20046;-75
2021/03/30 08:17:10;;;;;;;9.25;3.65;;;;;;;-141.50;100.00;63355.56;5044199;28;20049;-75
2021/03/30 08:22:11;;;;;;;9.77;3.88;;;;;;;-141.50;100.00;63355.56;5004850;28;20050;-77
2021/03/30 08:24:40;;;;;;;12.88;4.63;;;;;;;-141.50;100.00;63355.56;5008559;28;20139;-77
2021/03/30 08:27:34;;;;;;;12.05;3.97;;;;;;;-141.50;100.00;63355.56;4995496;28;20469;-77
2021/03/30 08:30:18;;;;;;;13.88;4.30;;;;;;;-141.50;100.00;63355.56;5009230;28;20038;-78
2021/03/30 08:32:50;;;;;;;9.23;4.45;;;;;;;-141.50;100.00;63355.56;5009224;28;20084;-77
2021/03/30 08:35:29;;;;;;;16.98;4.72;;;;;;;-141.50;100.00;63355.56;5011198;28;20042;-79
2021/03/30 08:37:57;;;;;;;14.50;4.50;;;;;;;-141.50;100.00;63355.56;5013999;28;20077;-78
2021/03/30 08:40:35;;;;;;;12.90;4.38;;;;;;;-141.50;100.00;63355.56;5010779;28;20570;-78
2021/03/30 08:43:14;;;;;;;11.27;4.75;;;;;;;-141.50;100.00;63355.56;5010674;28;20038;-78
2021/03/30 08:46:04;;;;;;;12.02;4.63;;;;;;;-141.50;100.00;63355.56;5011362;28;20347;-78
2021/03/30 08:48:34;;;;;;;11.10;4.40;;;;;;;-141.50;100.00;63355.56;5014239;28;20040;-77
2021/03/30 08:51:06;;;;;;;11.02;4.60;;;;;;;-141.50;100.00;63355.56;5011924;28;20037;-77
2021/03/30 08:53:34;;;;;;;11.27;4.90;;;;;;;-141.50;100.00;63355.56;5000809;28;20096;-78
2021/03/30 08:56:04;;;;;;;9.27;4.95;;;;;;;-141.50;100.00;63355.56;5011172;28;20072;-78
2021/03/30 08:58:32;;;;;;;11.77;4.90;;;;;;;-141.50;100.00;63355.56;5010158;28;20049;-78
2021/03/30 09:01:05;;;;;;;12.40;5.40;;;;;;;-141.50;100.00;63355.56;5010602;28;20086;-78
2021/03/30 09:03:31;;;;;;;11.13;5.40;;;;;;;-141.50;100.00;63355.56;5005046;28;20053;-78
2021/03/30 09:05:57;;;;;;;12.57;5.43;;;;;;;-141.50;100.00;63355.56;5015380;28;20119;-79
2021/03/30 09:08:38;;;;;;;12.70;5.97;;;;;;;-141.50;100.00;63355.56;5015226;28;20494;-79
2021/03/30 09:11:14;;;;;;;10.20;4.90;;;;;;;-141.50;100.00;63355.56;5013477;28;20050;-79
2021/03/30 09:13:40;;;;;;;15.07;5.82;;;;;;;-141.50;100.00;63355.56;5013449;28;20080;-78
2021/03/30 09:16:09;;;;;;;11.38;5.78;;;;;;;-141.50;100.00;63355.56;5012997;28;20037;-78
2021/03/30 09:18:36;;;;;;;17.52;5.68;;;;;;;-141.50;100.00;63355.56;5012594;28;20100;-77
2021/03/30 09:21:11;;;;;;;15.10;5.55;;;;;;;-141.50;100.00;63355.56;5013351;28;20042;-77
2021/03/30 09:23:39;;;;;;;11.73;5.43;;;;;;;-141.50;100.00;63355.56;5011581;28;20068;-77
2021/03/30 09:26:10;;;;;;;17.50;6.28;;;;;;;-141.50;100.00;63355.56;5011493;28;20324;-77
2021/03/30 09:28:39;;;;;;;16.05;5.32;;;;;;;-141.50;100.00;63355.56;5011824;28;20073;-77
2021/03/30 09:31:06;;;;;;;14.00;6.68;;;;;;;-141.50;100.00;63355.56;5013885;28;20045;-77
2021/03/30 09:33:32;;;;;;;11.05;5.45;;;;;;;-141.50;100.00;63355.56;5012414;28;20054;-79
2021/03/30 09:36:04;;;;;;;11.15;5.57;;;;;;;-141.50;100.00;63355.56;5013472;28;20046;-80
2021/03/30 09:38:46;;;;;;;12.35;6.10;;;;;;;-141.50;100.00;63355.56;5013839;28;20050;-79
2021/03/30 09:41:12;;;;;;;12.10;5.63;;;;;;;-141.50;100.00;63355.56;5015028;28;20038;-79
2021/03/30 09:43:41;;;;;;;14.65;5.82;;;;;;;-141.50;100.00;63355.56;5014312;28;20046;-78
2021/03/30 09:46:07;;;;;;;13.15;5.72;;;;;;;-141.50;100.00;63355.56;5014047;28;20517;-80
2021/03/30 09:48:33;;;;;;;13.70;6.50;;;;;;;-141.50;100.00;63355.56;5017756;28;20065;-77
2021/03/30 09:51:00;;;;;;;10.95;6.22;;;;;;;-141.50;100.00;63355.56;5009777;28;20046;-78
2021/03/30 09:53:40;;;;;;;12.05;6.30;;;;;;;-141.50;100.00;63355.56;5027906;28;20045;-77
2021/03/30 09:56:06;;;;;;;17.40;5.93;;;;;;;-141.50;100.00;63355.56;5022924;28;20105;-77
2021/03/30 09:58:33;;;;;;;14.95;5.88;;;;;;;-141.50;100.00;63355.56;5012520;28;20505;-77
2021/03/30 10:00:59;;;;;;;13.93;5.68;;;;;;;-141.50;100.00;63355.56;5007333;28;20112;-77
2021/03/30 10:03:26;;;;;;;17.80;6.03;;;;;;;-141.50;100.00;63355.56;5014319;28;20108;-76
2021/03/30 10:05:52;;;;;;;14.18;6.43;;;;;;;-141.50;100.00;63355.56;5011978;28;20054;-76
2021/03/30 10:08:27;;;;;;;12.18;6.30;;;;;;;-141.50;100.00;63355.56;5012448;28;20061;-76
2021/03/30 10:10:59;;;;;;;13.93;5.97;;;;;;;-141.50;100.00;63355.56;5019796;28;20042;-81
2021/03/30 10:13:36;;;;;;;11.23;6.30;;;;;;;-141.50;100.00;63355.56;5005540;28;20088;-81
2021/03/30 10:16:25;;;;;;;17.13;6.22;;;;;;;-141.50;100.00;63355.56;5019778;28;20066;-82
2021/03/30 10:18:51;;;;;;;13.48;6.20;;;;;;;-141.50;100.00;63355.56;5008148;28;20478;-73
2021/03/30 10:21:18;;;;;;;13.02;6.30;;;;;;;-141.50;100.00;63355.56;5011549;28;20069;-73
2021/03/30 10:23:50;;;;;;;13.98;6.32;;;;;;;-141.50;100.00;63355.56;5010710;28;20041;-73
2021/03/30 10:26:26;;;;;;;15.23;6.43;;;;;;;-141.50;100.00;63355.56;5009520;28;20379;-74
2021/03/30 10:28:56;;;;;;;20.45;6.57;;;;;;;-141.50;100.00;63355.56;5009539;28;20046;-74
2021/03/30 10:31:34;;;;;;;18.55;6.72;;;;;;;-141.50;100.00;63355.56;5008552;28;20608;-71
2021/03/30 10:34:00;;;;;;;13.88;6.82;;;;;;;-141.50;100.00;63355.56;5002823;28;20536;-71
2021/03/30 10:36:27;;;;;;;13.90;6.95;;;;;;;-141.50;100.00;63355.56;5008525;28;20045;-73
2021/03/30 10:39:07;;;;;;;13.23;6.97;;;;;;;-141.50;100.00;63355.56;4999130;28;20639;-73
2021/03/30 10:41:37;;;;;;;9.95;6.47;;;;;;;-141.50;100.00;63355.56;5001044;28;20533;-72
2021/03/30 10:44:05;;;;;;;14.65;7.25;;;;;;;-141.50;100.00;63355.56;5007091;28;20056;-74
2021/03/30 10:46:43;;;;;;;14.38;6.97;;;;;;;-141.50;100.00;63355.56;5014562;28;20533;-81
2021/03/30 10:49:15;;;;;;;10.82;6.95;;;;;;;-141.50;100.00;63355.56;4997001;28;20046;-81
2021/03/30 10:51:44;;;;;;;11.52;7.53;;;;;;;-141.50;100.00;63355.56;5008737;28;20827;-80
2021/03/30 10:54:19;;;;;;;11.45;7.13;;;;;;;-141.50;100.00;63355.56;5016896;28;20504;-81
2021/03/30 10:56:48;;;;;;;14.75;7.50;;;;;;;-141.50;100.00;63355.56;5001921;28;20049;-80
2021/03/30 10:59:15;;;;;;;13.05;7.43;;;;;;;-141.50;100.00;63355.56;5019063;28;20050;-81
2021/03/30 11:01:46;;;;;;;15.20;7.65;;;;;;;-141.50;100.00;63355.56;5019754;28;20052;-81
2021/03/30 11:04:27;;;;;;;;;;;;;;;;;;;;;
2021/03/30 11:06:54;;;;;;;15.07;7.47;;;;;;;-141.50;100.00;63355.56;5024709;28;20073;-79
2021/03/30 11:09:24;;;;;;;12.95;6.80;;;;;;;-141.50;100.00;63355.56;5011511;28;20052;-79
2021/03/30 11:11:51;;;;;;;14.10;7.45;;;;;;;-141.50;100.00;63355.56;5009687;28;20141;-80
2021/03/30 11:14:22;;;;;;;12.98;7.60;;;;;;;-141.50;100.00;63355.56;5024173;28;20386;-80
2021/03/30 11:16:49;;;;;;;11.90;6.97;;;;;;;-141.50;100.00;63355.56;5023491;28;20046;-79
2021/03/30 11:19:20;;;;;;;15.55;8.30;;;;;;;-141.50;100.00;63355.56;5021081;28;20034;-82
2021/03/30 11:21:46;;;;;;;14.45;7.00;;;;;;;-141.50;100.00;63355.56;5024958;28;20165;-81
2021/03/30 11:24:16;;;;;;;16.45;7.20;;;;;;;-141.50;100.00;63355.56;5008489;28;20077;-82
2021/03/30 11:26:47;;;;;;;12.90;7.20;;;;;;;-141.50;100.00;63355.56;5025324;28;20489;-80